Black Star — 9HA2911 — position and weather

sailwx.info

Track history (hours):
 
Tides and Currents Weather Stations Pressure Air Temp Water Temp Dewpoint Dewpoint Depression Visibility Wind Speed Wind Dir Waves Ship Positions

Black Star

Last reported at 2014-Jul-29 06:29 UTC. Time now 2014-Jul-29 06:45 UTC.
Position N 51°53' E 004°21'.

Length 128 m; draft 5.5 m.

Type: Tanker. MMSI: 256714000.

Date/timePositionNaut miles runAvg speedWind from/ knotsBaromVisibWave heightAir tempDewpointWater temp
2014-Jul-29 06:29N 51°53' E 004°21'0 0.0
2014-Jul-29 05:19N 51°53' E 004°21'0 0.0
2014-Jul-29 04:27N 51°53' E 004°21'0 0.0
2014-Jul-29 03:33N 51°53' E 004°21'2 2.3
2014-Jul-29 02:34N 51°51' E 004°22'9 9.2
2014-Jul-29 01:34N 51°48' E 004°36'7 7.0
2014-Jul-29 00:33N 51°42' E 004°34'0 0.0
2014-Jul-28 23:28N 51°42' E 004°34'0 0.0
2014-Jul-28 20:19N 51°42' E 004°34'0 0.0
2014-Jul-28 19:04N 51°42' E 004°34'0 0.0
2014-Jul-28 18:13N 51°42' E 004°34'0 0.0
2014-Jul-28 15:31N 51°42' E 004°34'0 0.0
2014-Jul-28 11:28N 51°42' E 004°34'0 0.0
2014-Jul-28 09:28N 51°42' E 004°34'0 0.0
2014-Jul-28 08:22N 51°42' E 004°34'0 0.0
2014-Jul-28 07:31N 51°42' E 004°34'0 0.0
2014-Jul-28 05:19N 51°42' E 004°34'0 0.0
2014-Jul-28 04:13N 51°42' E 004°34'0 0.6
2014-Jul-28 03:33N 51°41' E 004°34'0 0.0
2014-Jul-28 02:30N 51°41' E 004°34'0 0.0
2014-Jul-28 01:33N 51°41' E 004°34'0 0.0
2014-Jul-28 00:33N 51°41' E 004°34'0 0.0
2014-Jul-27 21:30N 51°41' E 004°34'0 0.0
2014-Jul-27 20:33N 51°41' E 004°34'0 0.0
2014-Jul-27 19:24N 51°41' E 004°34'0 0.0
2014-Jul-27 18:21N 51°41' E 004°34'0 0.0
2014-Jul-27 17:18N 51°41' E 004°34'0 0.0
2014-Jul-27 16:30N 51°41' E 004°34'0 0.0
2014-Jul-27 15:24N 51°41' E 004°34'0 0.0
2014-Jul-27 14:33N 51°41' E 004°34'0 0.0
2014-Jul-27 13:24N 51°41' E 004°34'0 0.0
2014-Jul-27 12:30N 51°41' E 004°34'0 0.0
2014-Jul-27 11:24N 51°41' E 004°34'0 0.4
2014-Jul-27 10:33N 51°42' E 004°35'7 6.8
2014-Jul-27 09:33N 51°48' E 004°35'9 8.9
2014-Jul-27 08:33N 51°51' E 004°21'3 3.5
2014-Jul-27 07:33N 51°53' E 004°17'0 0.0
2014-Jul-27 06:32N 51°53' E 004°17'0 0.0
2014-Jul-27 05:32N 51°53' E 004°17'0 0.0
2014-Jul-27 04:29N 51°53' E 004°17'0 0.0
2014-Jul-27 03:32N 51°53' E 004°17'0 0.0
2014-Jul-27 02:20N 51°53' E 004°17'0 0.0
2014-Jul-27 01:29N 51°53' E 004°17'0 0.0
2014-Jul-27 00:29N 51°53' E 004°17'0 0.0
2014-Jul-26 23:32N 51°53' E 004°17'0 0.0
2014-Jul-26 22:29N 51°53' E 004°17'0 0.0
2014-Jul-26 21:23N 51°53' E 004°17'0 0.0
2014-Jul-26 20:29N 51°53' E 004°17'0 0.0
2014-Jul-26 19:32N 51°53' E 004°17'0 0.0
2014-Jul-26 18:32N 51°53' E 004°17'0 0.0
2014-Jul-26 17:29N 51°53' E 004°17'0 0.0
2014-Jul-26 16:32N 51°53' E 004°17'0 0.0
2014-Jul-26 15:29N 51°53' E 004°17'0 0.0
2014-Jul-26 14:32N 51°53' E 004°17'0 0.0
2014-Jul-26 13:32N 51°53' E 004°17'0 0.0
2014-Jul-26 12:23N 51°53' E 004°17'0 0.0
2014-Jul-26 11:20N 51°53' E 004°17'0 0.0
2014-Jul-26 10:29N 51°53' E 004°17'0 0.0
2014-Jul-26 09:29N 51°53' E 004°17'0 0.0
2014-Jul-26 08:32N 51°53' E 004°17'0 0.0
2014-Jul-26 07:32N 51°53' E 004°17'1 1.4
2014-Jul-26 06:33N 51°54' E 004°16'1010.1
2014-Jul-26 05:34N 51°59' E 004°02'1311.8
2014-Jul-26 04:29N 51°59' E 003°42'2412.5
2014-Jul-26 02:33N 51°52' E 003°04'2712.8
2014-Jul-26 00:28N 51°39' E 002°27'1313.3
2014-Jul-25 23:31N 51°29' E 002°14'1212.3
2014-Jul-25 22:33N 51°18' E 002°08'1212.5
2014-Jul-25 21:33N 51°10' E 001°52'1312.5
2014-Jul-25 20:33N 51°02' E 001°37'1111.0
2014-Jul-25 19:33N 50°53' E 001°25'1110.8
2014-Jul-25 18:33N 50°43' E 001°21'1111.0
2014-Jul-25 17:32N 50°36' E 001°07'1111.2
2014-Jul-25 16:31N 50°30' E 000°52'1111.1
2014-Jul-25 15:33N 50°27' E 000°35'1111.1
2014-Jul-25 14:33N 50°24' E 000°18'14012.7
2014-Jul-25 03:31N 49°41' W 003°09'1412.3
2014-Jul-25 02:25N 49°34' W 003°27'1312.2
2014-Jul-25 01:20N 49°27' W 003°44'28710.2
2014-Jul-23 21:16N 44°40' W 004°14'1012.7
2014-Jul-23 20:27N 44°30' W 004°10'1112.8
2014-Jul-23 19:33N 44°19' W 004°05'1312.9
2014-Jul-23 18:33N 44°07' W 004°00'1313.0
2014-Jul-23 17:33N 43°54' W 003°55'1513.2
2014-Jul-23 16:25N 43°40' W 003°49'51 2.1
2014-Jul-22 15:26N 43°38' W 005°00'1411.3
2014-Jul-22 14:14N 43°42' W 005°19'811.4
2014-Jul-22 13:32N 43°43' W 005°30'1111.4
2014-Jul-22 12:33N 43°46' W 005°45'1511.3
2014-Jul-22 11:16N 43°48' W 006°05'374 8.9
2014-Jul-20 17:21N 38°15' W 009°48'1011.3
2014-Jul-20 16:26N 38°05' W 009°45'1011.1
2014-Jul-20 15:33N 37°55' W 009°42'1111.4
2014-Jul-20 14:33N 37°44' W 009°40'7710.7
2014-Jul-20 07:20N 36°36' W 008°53'  
Track history (hours):
 
Tides and Currents Weather Stations Pressure Air Temp Water Temp Dewpoint Dewpoint Depression Visibility Wind Speed Wind Dir Waves Ship Positions

Black Star

Last reported at 2014-Jul-29 06:29 UTC. Time now 2014-Jul-29 06:45 UTC.
Position N 51°53' E 004°21'.

Length 128 m; draft 5.5 m.

Type: Tanker. MMSI: 256714000.

Date/timePositionNaut miles runAvg speedWind from/ knotsBaromVisibWave heightAir tempDewpointWater temp
2014-Jul-29 06:29N 51°53' E 004°21'0 0.0
2014-Jul-29 05:19N 51°53' E 004°21'0 0.0
2014-Jul-29 04:27N 51°53' E 004°21'0 0.0
2014-Jul-29 03:33N 51°53' E 004°21'2 2.3
2014-Jul-29 02:34N 51°51' E 004°22'9 9.2
2014-Jul-29 01:34N 51°48' E 004°36'7 7.0
2014-Jul-29 00:33N 51°42' E 004°34'0 0.0
2014-Jul-28 23:28N 51°42' E 004°34'0 0.0
2014-Jul-28 20:19N 51°42' E 004°34'0 0.0
2014-Jul-28 19:04N 51°42' E 004°34'0 0.0
2014-Jul-28 18:13N 51°42' E 004°34'0 0.0
2014-Jul-28 15:31N 51°42' E 004°34'0 0.0
2014-Jul-28 11:28N 51°42' E 004°34'0 0.0
2014-Jul-28 09:28N 51°42' E 004°34'0 0.0
2014-Jul-28 08:22N 51°42' E 004°34'0 0.0
2014-Jul-28 07:31N 51°42' E 004°34'0 0.0
2014-Jul-28 05:19N 51°42' E 004°34'0 0.0
2014-Jul-28 04:13N 51°42' E 004°34'0 0.6
2014-Jul-28 03:33N 51°41' E 004°34'0 0.0
2014-Jul-28 02:30N 51°41' E 004°34'0 0.0
2014-Jul-28 01:33N 51°41' E 004°34'0 0.0
2014-Jul-28 00:33N 51°41' E 004°34'0 0.0
2014-Jul-27 21:30N 51°41' E 004°34'0 0.0
2014-Jul-27 20:33N 51°41' E 004°34'0 0.0
2014-Jul-27 19:24N 51°41' E 004°34'0 0.0
2014-Jul-27 18:21N 51°41' E 004°34'0 0.0
2014-Jul-27 17:18N 51°41' E 004°34'0 0.0
2014-Jul-27 16:30N 51°41' E 004°34'0 0.0
2014-Jul-27 15:24N 51°41' E 004°34'0 0.0
2014-Jul-27 14:33N 51°41' E 004°34'0 0.0
2014-Jul-27 13:24N 51°41' E 004°34'0 0.0
2014-Jul-27 12:30N 51°41' E 004°34'0 0.0
2014-Jul-27 11:24N 51°41' E 004°34'0 0.4
2014-Jul-27 10:33N 51°42' E 004°35'7 6.8
2014-Jul-27 09:33N 51°48' E 004°35'9 8.9
2014-Jul-27 08:33N 51°51' E 004°21'3 3.5
2014-Jul-27 07:33N 51°53' E 004°17'0 0.0
2014-Jul-27 06:32N 51°53' E 004°17'0 0.0
2014-Jul-27 05:32N 51°53' E 004°17'0 0.0
2014-Jul-27 04:29N 51°53' E 004°17'0 0.0
2014-Jul-27 03:32N 51°53' E 004°17'0 0.0
2014-Jul-27 02:20N 51°53' E 004°17'0 0.0
2014-Jul-27 01:29N 51°53' E 004°17'0 0.0
2014-Jul-27 00:29N 51°53' E 004°17'0 0.0
2014-Jul-26 23:32N 51°53' E 004°17'0 0.0
2014-Jul-26 22:29N 51°53' E 004°17'0 0.0
2014-Jul-26 21:23N 51°53' E 004°17'0 0.0
2014-Jul-26 20:29N 51°53' E 004°17'0 0.0
2014-Jul-26 19:32N 51°53' E 004°17'0 0.0
2014-Jul-26 18:32N 51°53' E 004°17'0 0.0
2014-Jul-26 17:29N 51°53' E 004°17'0 0.0
2014-Jul-26 16:32N 51°53' E 004°17'0 0.0
2014-Jul-26 15:29N 51°53' E 004°17'0 0.0
2014-Jul-26 14:32N 51°53' E 004°17'0 0.0
2014-Jul-26 13:32N 51°53' E 004°17'0 0.0
2014-Jul-26 12:23N 51°53' E 004°17'0 0.0
2014-Jul-26 11:20N 51°53' E 004°17'0 0.0
2014-Jul-26 10:29N 51°53' E 004°17'0 0.0
2014-Jul-26 09:29N 51°53' E 004°17'0 0.0
2014-Jul-26 08:32N 51°53' E 004°17'0 0.0
2014-Jul-26 07:32N 51°53' E 004°17'1 1.4
2014-Jul-26 06:33N 51°54' E 004°16'1010.1
2014-Jul-26 05:34N 51°59' E 004°02'1311.8
2014-Jul-26 04:29N 51°59' E 003°42'2412.5
2014-Jul-26 02:33N 51°52' E 003°04'2712.8
2014-Jul-26 00:28N 51°39' E 002°27'1313.3
2014-Jul-25 23:31N 51°29' E 002°14'1212.3
2014-Jul-25 22:33N 51°18' E 002°08'1212.5
2014-Jul-25 21:33N 51°10' E 001°52'1312.5
2014-Jul-25 20:33N 51°02' E 001°37'1111.0
2014-Jul-25 19:33N 50°53' E 001°25'1110.8
2014-Jul-25 18:33N 50°43' E 001°21'1111.0
2014-Jul-25 17:32N 50°36' E 001°07'1111.2
2014-Jul-25 16:31N 50°30' E 000°52'1111.1
2014-Jul-25 15:33N 50°27' E 000°35'1111.1
2014-Jul-25 14:33N 50°24' E 000°18'14012.7
2014-Jul-25 03:31N 49°41' W 003°09'1412.3
2014-Jul-25 02:25N 49°34' W 003°27'1312.2
2014-Jul-25 01:20N 49°27' W 003°44'28710.2
2014-Jul-23 21:16N 44°40' W 004°14'1012.7
2014-Jul-23 20:27N 44°30' W 004°10'1112.8
2014-Jul-23 19:33N 44°19' W 004°05'1312.9
2014-Jul-23 18:33N 44°07' W 004°00'1313.0
2014-Jul-23 17:33N 43°54' W 003°55'1513.2
2014-Jul-23 16:25N 43°40' W 003°49'51 2.1
2014-Jul-22 15:26N 43°38' W 005°00'1411.3
2014-Jul-22 14:14N 43°42' W 005°19'811.4
2014-Jul-22 13:32N 43°43' W 005°30'1111.4
2014-Jul-22 12:33N 43°46' W 005°45'1511.3
2014-Jul-22 11:16N 43°48' W 006°05'374 8.9
2014-Jul-20 17:21N 38°15' W 009°48'1011.3
2014-Jul-20 16:26N 38°05' W 009°45'1011.1
2014-Jul-20 15:33N 37°55' W 009°42'1111.4
2014-Jul-20 14:33N 37°44' W 009°40'7710.7
2014-Jul-20 07:20N 36°36' W 008°53'  

Dump ship's entire track history